sensor_id;sensor_type;location;lat;lon;timestamp;pressure;altitude;pressure_sealevel;temperature;humidity
38852;BME280;24605;50.092;9.182;2023-09-30T00:01:36;155759.53;;;14.66;100.00
38852;BME280;24605;50.092;9.182;2023-09-30T00:04:04;155775.22;;;14.72;100.00
38852;BME280;24605;50.092;9.182;2023-09-30T00:06:32;155766.06;;;14.69;100.00
38852;BME280;24605;50.092;9.182;2023-09-30T00:08:59;155758.16;;;14.66;100.00
38852;BME280;24605;50.092;9.182;2023-09-30T00:11:26;155732.00;;;14.55;100.00
38852;BME280;24605;50.092;9.182;2023-09-30T00:13:52;155775.22;;;14.72;100.00
38852;BME280;24605;50.092;9.182;2023-09-30T00:16:19;155766.06;;;14.69;100.00
38852;BME280;24605;50.092;9.182;2023-09-30T00:18:45;155760.81;;;14.67;100.00
38852;BME280;24605;50.092;9.182;2023-09-30T00:21:12;155752.91;;;14.64;100.00
38852;BME280;24605;50.092;9.182;2023-09-30T00:23:40;155752.91;;;14.64;100.00
38852;BME280;24605;50.092;9.182;2023-09-30T00:26:08;155749.00;;;14.62;100.00
38852;BME280;24605;50.092;9.182;2023-09-30T00:28:34;155764.72;;;14.68;100.00
38852;BME280;24605;50.092;9.182;2023-09-30T00:31:00;155691.50;;;14.39;100.00
38852;BME280;24605;50.092;9.182;2023-09-30T00:33:27;155734.63;;;14.56;100.00
38852;BME280;24605;50.092;9.182;2023-09-30T00:35:53;155726.81;;;14.53;100.00
38852;BME280;24605;50.092;9.182;2023-09-30T00:38:20;155752.91;;;14.64;100.00
38852;BME280;24605;50.092;9.182;2023-09-30T00:40:49;155756.88;;;14.65;100.00
38852;BME280;24605;50.092;9.182;2023-09-30T00:43:20;155781.72;;;14.75;100.00
38852;BME280;24605;50.092;9.182;2023-09-30T00:45:48;155776.50;;;14.73;100.00
38852;BME280;24605;50.092;9.182;2023-09-30T00:48:15;155737.25;;;14.57;100.00
38852;BME280;24605;50.092;9.182;2023-09-30T00:50:43;155745.09;;;14.61;100.00
38852;BME280;24605;50.092;9.182;2023-09-30T00:53:09;155728.09;;;14.54;100.00
38852;BME280;24605;50.092;9.182;2023-09-30T00:55:36;155739.84;;;14.58;100.00
38852;BME280;24605;50.092;9.182;2023-09-30T00:58:04;155729.44;;;14.54;100.00
38852;BME280;24605;50.092;9.182;2023-09-30T01:00:32;155734.63;;;14.56;100.00
38852;BME280;24605;50.092;9.182;2023-09-30T01:02:58;155735.94;;;14.57;100.00
38852;BME280;24605;50.092;9.182;2023-09-30T01:05:29;155739.84;;;14.58;100.00
38852;BME280;24605;50.092;9.182;2023-09-30T01:07:55;155732.00;;;14.55;100.00
38852;BME280;24605;50.092;9.182;2023-09-30T01:10:22;155760.81;;;14.67;100.00
38852;BME280;24605;50.092;9.182;2023-09-30T01:12:48;155752.91;;;14.64;100.00
38852;BME280;24605;50.092;9.182;2023-09-30T01:15:15;155718.94;;;14.50;100.00
38852;BME280;24605;50.092;9.182;2023-09-30T01:17:43;155730.72;;;14.55;100.00
38852;BME280;24605;50.092;9.182;2023-09-30T01:20:10;155709.81;;;14.47;100.00
38852;BME280;24605;50.092;9.182;2023-09-30T01:22:42;155712.44;;;14.48;100.00
38852;BME280;24605;50.092;9.182;2023-09-30T01:25:10;155688.91;;;14.38;100.00
38852;BME280;24605;50.092;9.182;2023-09-30T01:27:37;155650.97;;;14.23;100.00
38852;BME280;24605;50.092;9.182;2023-09-30T01:30:04;155653.59;;;14.24;100.00
38852;BME280;24605;50.092;9.182;2023-09-30T01:32:31;155615.69;;;14.09;100.00
38852;BME280;24605;50.092;9.182;2023-09-30T01:34:57;155653.59;;;14.24;100.00
38852;BME280;24605;50.092;9.182;2023-09-30T01:37:26;155662.75;;;14.28;100.00
38852;BME280;24605;50.092;9.182;2023-09-30T01:39:55;155644.47;;;14.21;100.00
38852;BME280;24605;50.092;9.182;2023-09-30T01:42:21;155652.28;;;14.24;100.00
38852;BME280;24605;50.092;9.182;2023-09-30T01:44:48;155640.50;;;14.19;100.00
38852;BME280;24605;50.092;9.182;2023-09-30T01:47:14;155645.75;;;14.21;100.00
38852;BME280;24605;50.092;9.182;2023-09-30T01:49:40;155661.47;;;14.28;100.00
38852;BME280;24605;50.092;9.182;2023-09-30T01:52:07;155660.13;;;14.27;100.00
38852;BME280;24605;50.092;9.182;2023-09-30T01:54:33;155677.13;;;14.34;100.00
38852;BME280;24605;50.092;9.182;2023-09-30T01:57:01;155657.50;;;14.26;100.00
38852;BME280;24605;50.092;9.182;2023-09-30T01:59:28;155639.22;;;14.19;100.00
38852;BME280;24605;50.092;9.182;2023-09-30T02:01:54;155632.69;;;14.16;100.00
38852;BME280;24605;50.092;9.182;2023-09-30T02:04:21;155628.78;;;14.15;100.00
38852;BME280;24605;50.092;9.182;2023-09-30T02:06:48;155635.31;;;14.17;100.00
38852;BME280;24605;50.092;9.182;2023-09-30T02:09:14;155624.84;;;14.13;100.00
38852;BME280;24605;50.092;9.182;2023-09-30T02:11:41;155584.38;;;13.97;100.00
38852;BME280;24605;50.092;9.182;2023-09-30T02:14:09;155596.09;;;14.02;100.00
38852;BME280;24605;50.092;9.182;2023-09-30T02:16:37;155575.19;;;13.93;100.00
38852;BME280;24605;50.092;9.182;2023-09-30T02:19:04;155577.81;;;13.94;100.00
38852;BME280;24605;50.092;9.182;2023-09-30T02:21:31;155562.13;;;13.88;100.00
38852;BME280;24605;50.092;9.182;2023-09-30T02:23:58;155570.00;;;13.91;100.00
38852;BME280;24605;50.092;9.182;2023-09-30T02:26:24;155584.38;;;13.97;100.00
38852;BME280;24605;50.092;9.182;2023-09-30T02:28:52;155586.94;;;13.98;100.00
38852;BME280;24605;50.092;9.182;2023-09-30T02:31:20;155583.03;;;13.97;100.00
38852;BME280;24605;50.092;9.182;2023-09-30T02:33:46;155539.91;;;13.79;100.00
38852;BME280;24605;50.092;9.182;2023-09-30T02:36:13;155543.84;;;13.81;100.00
38852;BME280;24605;50.092;9.182;2023-09-30T02:38:40;155528.19;;;13.75;100.00
38852;BME280;24605;50.092;9.182;2023-09-30T02:41:07;155585.66;;;13.98;100.00
38852;BME280;24605;50.092;9.182;2023-09-30T02:43:34;155567.38;;;13.90;100.00
38852;BME280;24605;50.092;9.182;2023-09-30T02:46:00;155585.66;;;13.98;100.00
38852;BME280;24605;50.092;9.182;2023-09-30T02:48:29;155588.28;;;13.99;100.00
38852;BME280;24605;50.092;9.182;2023-09-30T02:50:55;155560.84;;;13.88;100.00
38852;BME280;24605;50.092;9.182;2023-09-30T02:53:22;155481.16;;;13.56;100.00
38852;BME280;24605;50.092;9.182;2023-09-30T02:55:48;155504.69;;;13.66;100.00
38852;BME280;24605;50.092;9.182;2023-09-30T02:58:17;155503.34;;;13.65;100.00
38852;BME280;24605;50.092;9.182;2023-09-30T03:00:47;155530.75;;;13.76;100.00
38852;BME280;24605;50.092;9.182;2023-09-30T03:03:14;155478.53;;;13.55;100.00
38852;BME280;24605;50.092;9.182;2023-09-30T03:05:42;155443.28;;;13.41;100.00
38852;BME280;24605;50.092;9.182;2023-09-30T03:08:10;155411.84;;;13.29;100.00
38852;BME280;24605;50.092;9.182;2023-09-30T03:10:37;155421.00;;;13.32;100.00
38852;BME280;24605;50.092;9.182;2023-09-30T03:13:06;155470.69;;;13.52;100.00
38852;BME280;24605;50.092;9.182;2023-09-30T03:15:34;155486.34;;;13.58;100.00
38852;BME280;24605;50.092;9.182;2023-09-30T03:18:00;155447.16;;;13.43;100.00
38852;BME280;24605;50.092;9.182;2023-09-30T03:20:28;155434.09;;;13.38;100.00
38852;BME280;24605;50.092;9.182;2023-09-30T03:22:57;155405.34;;;13.26;100.00
38852;BME280;24605;50.092;9.182;2023-09-30T03:25:24;155445.88;;;13.42;100.00
38852;BME280;24605;50.092;9.182;2023-09-30T03:27:51;155444.56;;;13.42;100.00
38852;BME280;24605;50.092;9.182;2023-09-30T03:30:17;155439.38;;;13.40;100.00
38852;BME280;24605;50.092;9.182;2023-09-30T03:32:45;155445.88;;;13.42;100.00
38852;BME280;24605;50.092;9.182;2023-09-30T03:35:11;155424.94;;;13.34;100.00
38852;BME280;24605;50.092;9.182;2023-09-30T03:37:42;155418.38;;;13.31;100.00
38852;BME280;24605;50.092;9.182;2023-09-30T03:40:11;155401.44;;;13.25;100.00
38852;BME280;24605;50.092;9.182;2023-09-30T03:42:44;155375.31;;;13.14;100.00
38852;BME280;24605;50.092;9.182;2023-09-30T03:45:11;155327.00;;;12.95;100.00
38852;BME280;24605;50.092;9.182;2023-09-30T03:47:40;155342.66;;;13.01;100.00
38852;BME280;24605;50.092;9.182;2023-09-30T03:50:07;155321.78;;;12.93;100.00
38852;BME280;24605;50.092;9.182;2023-09-30T03:52:38;155328.28;;;12.96;100.00
38852;BME280;24605;50.092;9.182;2023-09-30T03:55:06;155327.00;;;12.95;100.00
38852;BME280;24605;50.092;9.182;2023-09-30T03:57:34;155338.75;;;13.00;100.00
38852;BME280;24605;50.092;9.182;2023-09-30T04:00:01;155324.41;;;12.94;100.00
38852;BME280;24605;50.092;9.182;2023-09-30T04:02:31;155334.81;;;12.98;100.00
38852;BME280;24605;50.092;9.182;2023-09-30T04:04:57;155345.28;;;13.03;100.00
38852;BME280;24605;50.092;9.182;2023-09-30T04:07:25;155362.22;;;13.09;100.00
38852;BME280;24605;50.092;9.182;2023-09-30T04:09:54;155350.47;;;13.05;100.00
38852;BME280;24605;50.092;9.182;2023-09-30T04:12:20;155368.78;;;13.12;100.00
38852;BME280;24605;50.092;9.182;2023-09-30T04:14:48;155376.59;;;13.15;100.00
38852;BME280;24605;50.092;9.182;2023-09-30T04:17:14;155355.69;;;13.07;100.00
38852;BME280;24605;50.092;9.182;2023-09-30T04:19:41;155325.69;;;12.95;100.00
38852;BME280;24605;50.092;9.182;2023-09-30T04:22:07;155358.31;;;13.08;100.00
38852;BME280;24605;50.092;9.182;2023-09-30T04:24:34;155363.56;;;13.10;100.00
38852;BME280;24605;50.092;9.182;2023-09-30T04:27:00;155345.28;;;13.03;100.00
38852;BME280;24605;50.092;9.182;2023-09-30T04:29:29;155283.91;;;12.78;100.00
38852;BME280;24605;50.092;9.182;2023-09-30T04:31:58;155277.38;;;12.76;100.00
38852;BME280;24605;50.092;9.182;2023-09-30T04:34:24;155282.63;;;12.78;100.00
38852;BME280;24605;50.092;9.182;2023-09-30T04:36:52;155287.81;;;12.80;100.00
38852;BME280;24605;50.092;9.182;2023-09-30T04:39:19;155282.63;;;12.78;100.00
38852;BME280;24605;50.092;9.182;2023-09-30T04:41:46;155272.16;;;12.74;100.00
38852;BME280;24605;50.092;9.182;2023-09-30T04:44:12;155296.94;;;12.83;100.00
38852;BME280;24605;50.092;9.182;2023-09-30T04:46:38;155280.00;;;12.77;100.00
38852;BME280;24605;50.092;9.182;2023-09-30T04:49:07;155253.88;;;12.66;100.00
38852;BME280;24605;50.092;9.182;2023-09-30T04:51:34;155260.41;;;12.69;100.00
38852;BME280;24605;50.092;9.182;2023-09-30T04:54:00;155281.28;;;12.77;100.00
38852;BME280;24605;50.092;9.182;2023-09-30T04:56:29;155252.56;;;12.66;100.00
38852;BME280;24605;50.092;9.182;2023-09-30T04:58:55;155248.66;;;12.64;100.00
38852;BME280;24605;50.092;9.182;2023-09-30T05:01:22;155242.13;;;12.62;100.00
38852;BME280;24605;50.092;9.182;2023-09-30T05:03:48;155206.88;;;12.48;100.00
38852;BME280;24605;50.092;9.182;2023-09-30T05:06:16;155196.44;;;12.44;100.00
38852;BME280;24605;50.092;9.182;2023-09-30T05:08:43;155166.41;;;12.32;100.00
38852;BME280;24605;50.092;9.182;2023-09-30T05:11:09;155166.41;;;12.32;100.00
38852;BME280;24605;50.092;9.182;2023-09-30T05:13:36;155148.16;;;12.25;100.00
38852;BME280;24605;50.092;9.182;2023-09-30T05:16:02;155145.53;;;12.23;100.00
38852;BME280;24605;50.092;9.182;2023-09-30T05:18:29;155145.53;;;12.23;100.00
38852;BME280;24605;50.092;9.182;2023-09-30T05:20:55;155136.41;;;12.20;100.00
38852;BME280;24605;50.092;9.182;2023-09-30T05:23:23;155131.19;;;12.18;100.00
38852;BME280;24605;50.092;9.182;2023-09-30T05:25:50;155105.13;;;12.07;100.00
38852;BME280;24605;50.092;9.182;2023-09-30T05:28:19;155092.03;;;12.02;100.00
38852;BME280;24605;50.092;9.182;2023-09-30T05:30:46;155112.91;;;12.11;100.00
38852;BME280;24605;50.092;9.182;2023-09-30T05:33:12;155110.28;;;12.10;100.00
38852;BME280;24605;50.092;9.182;2023-09-30T05:35:39;155102.50;;;12.06;100.00
38852;BME280;24605;50.092;9.182;2023-09-30T05:38:07;155065.88;;;11.92;100.00
38852;BME280;24605;50.092;9.182;2023-09-30T05:40:34;155034.59;;;11.80;100.00
38852;BME280;24605;50.092;9.182;2023-09-30T05:43:01;155012.41;;;11.71;100.00
38852;BME280;24605;50.092;9.182;2023-09-30T05:45:31;154922.41;;;11.35;100.00
38852;BME280;24605;50.092;9.182;2023-09-30T05:48:01;154958.91;;;11.50;100.00
38852;BME280;24605;50.092;9.182;2023-09-30T05:50:30;154962.81;;;11.51;100.00
38852;BME280;24605;50.092;9.182;2023-09-30T05:52:57;154975.88;;;11.56;100.00
38852;BME280;24605;50.092;9.182;2023-09-30T05:55:23;155008.50;;;11.69;100.00
38852;BME280;24605;50.092;9.182;2023-09-30T05:57:51;155007.16;;;11.69;100.00
38852;BME280;24605;50.092;9.182;2023-09-30T06:00:19;155011.13;;;11.70;100.00
38852;BME280;24605;50.092;9.182;2023-09-30T06:02:48;155035.88;;;11.80;100.00
38852;BME280;24605;50.092;9.182;2023-09-30T06:05:17;154998.03;;;11.65;100.00
38852;BME280;24605;50.092;9.182;2023-09-30T06:07:44;155024.13;;;11.75;100.00
38852;BME280;24605;50.092;9.182;2023-09-30T06:10:11;155041.13;;;11.82;100.00
38852;BME280;24605;50.092;9.182;2023-09-30T06:12:38;155041.13;;;11.82;100.00
38852;BME280;24605;50.092;9.182;2023-09-30T06:15:07;155085.53;;;12.00;100.00
38852;BME280;24605;50.092;9.182;2023-09-30T06:17:34;155129.88;;;12.17;100.00
38852;BME280;24605;50.092;9.182;2023-09-30T06:20:00;155132.50;;;12.18;100.00
38852;BME280;24605;50.092;9.182;2023-09-30T06:22:34;155122.03;;;12.14;100.00
38852;BME280;24605;50.092;9.182;2023-09-30T06:25:00;155171.66;;;12.34;100.00
38852;BME280;24605;50.092;9.182;2023-09-30T06:27:27;155203.00;;;12.46;100.00
38852;BME280;24605;50.092;9.182;2023-09-30T06:29:54;155219.91;;;12.53;100.00
38852;BME280;24605;50.092;9.182;2023-09-30T06:32:22;155244.75;;;12.63;100.00
38852;BME280;24605;50.092;9.182;2023-09-30T06:34:48;155259.13;;;12.68;100.00
38852;BME280;24605;50.092;9.182;2023-09-30T06:37:15;155293.03;;;12.82;100.00
38852;BME280;24605;50.092;9.182;2023-09-30T06:39:43;155317.81;;;12.92;100.00
38852;BME280;24605;50.092;9.182;2023-09-30T06:42:10;155319.16;;;12.92;100.00
38852;BME280;24605;50.092;9.182;2023-09-30T06:44:36;155324.41;;;12.94;100.00
38852;BME280;24605;50.092;9.182;2023-09-30T06:47:03;155340.03;;;13.00;100.00
38852;BME280;24605;50.092;9.182;2023-09-30T06:49:33;155334.81;;;12.98;100.00
38852;BME280;24605;50.092;9.182;2023-09-30T06:52:00;155311.31;;;12.89;100.00
38852;BME280;24605;50.092;9.182;2023-09-30T06:54:28;155303.50;;;12.86;100.00
38852;BME280;24605;50.092;9.182;2023-09-30T06:56:54;155295.66;;;12.83;100.00
38852;BME280;24605;50.092;9.182;2023-09-30T06:59:21;155315.25;;;12.91;100.00
38852;BME280;24605;50.092;9.182;2023-09-30T07:01:47;155333.53;;;12.98;100.00
38852;BME280;24605;50.092;9.182;2023-09-30T07:04:13;155337.44;;;12.99;100.00
38852;BME280;24605;50.092;9.182;2023-09-30T07:06:41;155379.22;;;13.16;100.00
38852;BME280;24605;50.092;9.182;2023-09-30T07:09:08;155389.69;;;13.20;100.00
38852;BME280;24605;50.092;9.182;2023-09-30T07:11:35;155388.34;;;13.20;100.00
38852;BME280;24605;50.092;9.182;2023-09-30T07:14:02;155402.72;;;13.25;100.00
38852;BME280;24605;50.092;9.182;2023-09-30T07:16:29;155402.72;;;13.25;100.00
38852;BME280;24605;50.092;9.182;2023-09-30T07:18:55;155423.59;;;13.33;100.00
38852;BME280;24605;50.092;9.182;2023-09-30T07:21:22;155460.25;;;13.48;100.00
38852;BME280;24605;50.092;9.182;2023-09-30T07:23:50;155468.06;;;13.51;100.00
38852;BME280;24605;50.092;9.182;2023-09-30T07:26:16;155473.31;;;13.53;100.00
38852;BME280;24605;50.092;9.182;2023-09-30T07:28:43;155507.25;;;13.67;100.00
38852;BME280;24605;50.092;9.182;2023-09-30T07:31:09;155503.34;;;13.65;100.00
38852;BME280;24605;50.092;9.182;2023-09-30T07:33:36;155487.69;;;13.59;100.00
38852;BME280;24605;50.092;9.182;2023-09-30T07:36:03;155502.06;;;13.65;100.00
38852;BME280;24605;50.092;9.182;2023-09-30T07:38:29;155490.28;;;13.60;100.00
38852;BME280;24605;50.092;9.182;2023-09-30T07:40:57;155572.59;;;13.92;100.00
38852;BME280;24605;50.092;9.182;2023-09-30T07:43:23;155549.09;;;13.83;100.00
38852;BME280;24605;50.092;9.182;2023-09-30T07:45:50;155495.50;;;13.62;100.00
38852;BME280;24605;50.092;9.182;2023-09-30T07:48:18;155563.41;;;13.89;100.00
38852;BME280;24605;50.092;9.182;2023-09-30T07:50:47;155517.72;;;13.71;100.00
38852;BME280;24605;50.092;9.182;2023-09-30T07:53:17;155457.66;;;13.47;100.00
38852;BME280;24605;50.092;9.182;2023-09-30T07:55:44;155564.75;;;13.89;100.00
38852;BME280;24605;50.092;9.182;2023-09-30T07:58:12;155627.47;;;14.14;100.00
38852;BME280;24605;50.092;9.182;2023-09-30T08:00:38;155682.38;;;14.36;100.00
38852;BME280;24605;50.092;9.182;2023-09-30T08:03:04;155707.19;;;14.46;100.00
38852;BME280;24605;50.092;9.182;2023-09-30T08:05:31;155771.31;;;14.71;100.00
38852;BME280;24605;50.092;9.182;2023-09-30T08:07:57;155738.56;;;14.58;100.00
38852;BME280;24605;50.092;9.182;2023-09-30T08:10:24;155734.63;;;14.56;100.00
38852;BME280;24605;50.092;9.182;2023-09-30T08:12:50;155722.84;;;14.52;100.00
38852;BME280;24605;50.092;9.182;2023-09-30T08:15:19;155678.41;;;14.34;100.00
38852;BME280;24605;50.092;9.182;2023-09-30T08:17:45;155737.25;;;14.57;100.00
38852;BME280;24605;50.092;9.182;2023-09-30T08:20:12;155905.94;;;15.24;100.00
38852;BME280;24605;50.092;9.182;2023-09-30T08:22:39;155983.09;;;15.55;100.00
38852;BME280;24605;50.092;9.182;2023-09-30T08:25:07;156085.22;;;15.95;100.00
38852;BME280;24605;50.092;9.182;2023-09-30T08:27:33;156124.47;;;16.10;100.00
38852;BME280;24605;50.092;9.182;2023-09-30T08:30:00;156162.41;;;16.25;100.00
38852;BME280;24605;50.092;9.182;2023-09-30T08:32:33;156280.16;;;16.72;100.00
38852;BME280;24605;50.092;9.182;2023-09-30T08:35:00;156361.41;;;17.04;100.00
38852;BME280;24605;50.092;9.182;2023-09-30T08:37:27;156303.72;;;16.81;100.00
38852;BME280;24605;50.092;9.182;2023-09-30T08:39:54;156443.91;;;17.36;100.00
38852;BME280;24605;50.092;9.182;2023-09-30T08:42:22;156442.56;;;17.36;100.00
38852;BME280;24605;50.092;9.182;2023-09-30T08:44:51;156492.34;;;17.56;100.00
38852;BME280;24605;50.092;9.182;2023-09-30T08:47:19;156429.50;;;17.31;100.00
38852;BME280;24605;50.092;9.182;2023-09-30T08:49:51;156408.56;;;17.22;100.00
38852;BME280;24605;50.092;9.182;2023-09-30T08:52:26;156360.06;;;17.03;100.00
38852;BME280;24605;50.092;9.182;2023-09-30T08:54:53;156323.38;;;16.89;99.08
38852;BME280;24605;50.092;9.182;2023-09-30T08:57:20;156244.81;;;16.58;99.67
38852;BME280;24605;50.092;9.182;2023-09-30T08:59:48;156178.09;;;16.32;100.00
38852;BME280;24605;50.092;9.182;2023-09-30T09:02:15;156168.94;;;16.28;100.00
38852;BME280;24605;50.092;9.182;2023-09-30T09:04:42;156120.50;;;16.09;100.00
38852;BME280;24605;50.092;9.182;2023-09-30T09:07:10;156066.88;;;15.88;100.00
38852;BME280;24605;50.092;9.182;2023-09-30T09:09:36;156227.84;;;16.51;100.00
38852;BME280;24605;50.092;9.182;2023-09-30T09:12:03;156227.84;;;16.51;99.66
38852;BME280;24605;50.092;9.182;2023-09-30T09:14:37;156217.34;;;16.47;100.00
38852;BME280;24605;50.092;9.182;2023-09-30T09:17:05;156247.44;;;16.59;100.00
38852;BME280;24605;50.092;9.182;2023-09-30T09:19:33;156166.31;;;16.27;100.00
38852;BME280;24605;50.092;9.182;2023-09-30T09:22:00;156199.03;;;16.40;100.00
38852;BME280;24605;50.092;9.182;2023-09-30T09:24:32;156162.41;;;16.25;100.00
38852;BME280;24605;50.092;9.182;2023-09-30T09:27:06;156271.00;;;16.68;98.68
38852;BME280;24605;50.092;9.182;2023-09-30T09:29:33;156272.34;;;16.69;98.84
38852;BME280;24605;50.092;9.182;2023-09-30T09:32:10;156319.47;;;16.87;97.72
38852;BME280;24605;50.092;9.182;2023-09-30T09:34:37;156286.75;;;16.74;98.65
38852;BME280;24605;50.092;9.182;2023-09-30T09:37:14;156320.75;;;16.88;97.66
38852;BME280;24605;50.092;9.182;2023-09-30T09:39:49;156339.13;;;16.95;94.18
38852;BME280;24605;50.092;9.182;2023-09-30T09:42:24;156344.38;;;16.97;92.19
38852;BME280;24605;50.092;9.182;2023-09-30T09:44:53;156333.88;;;16.93;91.68
38852;BME280;24605;50.092;9.182;2023-09-30T09:47:21;156315.50;;;16.86;92.48
38852;BME280;24605;50.092;9.182;2023-09-30T09:49:48;156329.91;;;16.91;92.95
38852;BME280;24605;50.092;9.182;2023-09-30T09:52:14;156375.81;;;17.10;93.59
38852;BME280;24605;50.092;9.182;2023-09-30T09:54:42;156340.47;;;16.96;92.95
38852;BME280;24605;50.092;9.182;2023-09-30T09:57:11;156349.63;;;16.99;95.03
38852;BME280;24605;50.092;9.182;2023-09-30T09:59:38;156425.53;;;17.29;96.10
38852;BME280;24605;50.092;9.182;2023-09-30T10:02:10;156445.19;;;17.37;89.06
38852;BME280;24605;50.092;9.182;2023-09-30T10:04:37;156474.03;;;17.48;88.79
38852;BME280;24605;50.092;9.182;2023-09-30T10:07:05;156587.97;;;17.93;86.41
38852;BME280;24605;50.092;9.182;2023-09-30T10:09:34;156535.53;;;17.73;85.69
38852;BME280;24605;50.092;9.182;2023-09-30T10:12:01;156606.34;;;18.00;86.46
38852;BME280;24605;50.092;9.182;2023-09-30T10:14:33;156652.22;;;18.19;85.15
38852;BME280;24605;50.092;9.182;2023-09-30T10:17:01;156549.97;;;17.78;88.93
38852;BME280;24605;50.092;9.182;2023-09-30T10:19:29;156527.72;;;17.69;84.94
38852;BME280;24605;50.092;9.182;2023-09-30T10:22:20;156367.94;;;17.06;89.08
38852;BME280;24605;50.092;9.182;2023-09-30T10:24:48;156202.94;;;16.41;94.57
38852;BME280;24605;50.092;9.182;2023-09-30T10:27:36;156261.84;;;16.65;93.11
38852;BME280;24605;50.092;9.182;2023-09-30T10:30:09;156268.38;;;16.67;90.61
38852;BME280;24605;50.092;9.182;2023-09-30T10:33:09;156271.00;;;16.68;87.01
38852;BME280;24605;50.092;9.182;2023-09-30T10:35:45;156248.78;;;16.59;86.24
38852;BME280;24605;50.092;9.182;2023-09-30T10:38:40;156284.13;;;16.73;89.29
38852;BME280;24605;50.092;9.182;2023-09-30T10:41:07;156445.19;;;17.37;87.56
38852;BME280;24605;50.092;9.182;2023-09-30T10:43:35;156514.59;;;17.64;85.67
38852;BME280;24605;50.092;9.182;2023-09-30T10:46:30;156593.22;;;17.95;82.03
38852;BME280;24605;50.092;9.182;2023-09-30T10:49:14;156656.13;;;18.20;81.36
38852;BME280;24605;50.092;9.182;2023-09-30T10:51:43;156563.09;;;17.83;85.10
38852;BME280;24605;50.092;9.182;2023-09-30T10:54:12;156607.69;;;18.01;87.75
38852;BME280;24605;50.092;9.182;2023-09-30T10:56:39;156521.19;;;17.67;86.73
38852;BME280;24605;50.092;9.182;2023-09-30T10:59:05;156479.22;;;17.50;87.22
38852;BME280;24605;50.092;9.182;2023-09-30T11:01:34;156323.38;;;16.89;88.51
38852;BME280;24605;50.092;9.182;2023-09-30T11:04:02;156498.88;;;17.58;84.07
38852;BME280;24605;50.092;9.182;2023-09-30T11:06:31;156436.03;;;17.33;82.09
38852;BME280;24605;50.092;9.182;2023-09-30T11:09:00;156522.47;;;17.67;82.61
38852;BME280;24605;50.092;9.182;2023-09-30T11:11:38;156500.19;;;17.59;82.65
38852;BME280;24605;50.092;9.182;2023-09-30T11:14:18;156527.72;;;17.69;81.04
38852;BME280;24605;50.092;9.182;2023-09-30T11:16:46;156616.84;;;18.05;80.72
38852;BME280;24605;50.092;9.182;2023-09-30T11:19:13;156682.34;;;18.30;78.10
38852;BME280;24605;50.092;9.182;2023-09-30T11:21:41;156681.00;;;18.30;76.81
38852;BME280;24605;50.092;9.182;2023-09-30T11:24:08;156658.75;;;18.21;76.06
38852;BME280;24605;50.092;9.182;2023-09-30T11:26:35;156633.88;;;18.11;75.26
38852;BME280;24605;50.092;9.182;2023-09-30T11:29:05;156574.88;;;17.88;82.03
38852;BME280;24605;50.092;9.182;2023-09-30T11:31:32;156501.50;;;17.59;81.92
38852;BME280;24605;50.092;9.182;2023-09-30T11:34:00;156326.00;;;16.90;86.87
38852;BME280;24605;50.092;9.182;2023-09-30T11:36:29;156420.34;;;17.27;85.42
38852;BME280;24605;50.092;9.182;2023-09-30T11:38:56;156460.91;;;17.43;82.33
38852;BME280;24605;50.092;9.182;2023-09-30T11:41:32;156430.78;;;17.31;81.49
38852;BME280;24605;50.092;9.182;2023-09-30T11:44:03;156298.53;;;16.79;81.34
38852;BME280;24605;50.092;9.182;2023-09-30T11:46:47;156332.53;;;16.92;79.34
38852;BME280;24605;50.092;9.182;2023-09-30T11:49:27;156273.63;;;16.69;77.70
38852;BME280;24605;50.092;9.182;2023-09-30T11:51:54;156305.06;;;16.82;78.62
38852;BME280;24605;50.092;9.182;2023-09-30T11:54:21;156354.81;;;17.01;75.94
38852;BME280;24605;50.092;9.182;2023-09-30T11:56:48;156357.44;;;17.02;75.83
38852;BME280;24605;50.092;9.182;2023-09-30T11:59:16;156365.31;;;17.05;77.07
38852;BME280;24605;50.092;9.182;2023-09-30T12:01:45;156412.47;;;17.24;75.30
38852;BME280;24605;50.092;9.182;2023-09-30T12:04:15;156493.63;;;17.56;73.82
38852;BME280;24605;50.092;9.182;2023-09-30T12:06:44;156543.41;;;17.76;73.66
38852;BME280;24605;50.092;9.182;2023-09-30T12:09:11;156594.53;;;17.96;72.80
38852;BME280;24605;50.092;9.182;2023-09-30T12:11:39;156544.72;;;17.76;71.25
38852;BME280;24605;50.092;9.182;2023-09-30T12:14:09;156561.75;;;17.83;71.48
38852;BME280;24605;50.092;9.182;2023-09-30T12:16:36;156548.66;;;17.78;68.99
38852;BME280;24605;50.092;9.182;2023-09-30T12:19:02;156420.34;;;17.27;70.13
38852;BME280;24605;50.092;9.182;2023-09-30T12:21:31;156430.78;;;17.31;71.54
38852;BME280;24605;50.092;9.182;2023-09-30T12:23:59;156308.97;;;16.83;72.01
38852;BME280;24605;50.092;9.182;2023-09-30T12:26:26;156483.19;;;17.52;71.65
38852;BME280;24605;50.092;9.182;2023-09-30T12:28:52;156598.50;;;17.97;70.51
38852;BME280;24605;50.092;9.182;2023-09-30T12:31:18;156555.22;;;17.80;69.31
38852;BME280;24605;50.092;9.182;2023-09-30T12:33:45;156511.97;;;17.63;71.21
38852;BME280;24605;50.092;9.182;2023-09-30T12:36:15;156536.88;;;17.73;71.43
38852;BME280;24605;50.092;9.182;2023-09-30T12:38:43;156573.53;;;17.88;71.98
38852;BME280;24605;50.092;9.182;2023-09-30T12:41:10;156614.22;;;18.04;70.24
38852;BME280;24605;50.092;9.182;2023-09-30T12:43:37;156712.47;;;18.42;67.96
38852;BME280;24605;50.092;9.182;2023-09-30T12:46:03;156711.19;;;18.42;68.93
38852;BME280;24605;50.092;9.182;2023-09-30T12:48:31;156704.59;;;18.39;68.70